sensor_id;sensor_type;location;lat;lon;timestamp;temperature;humidity
18291;DHT22;9271;48.590;8.866;2022-08-06T00:02:23;22.20;71.00
18291;DHT22;9271;48.590;8.866;2022-08-06T00:04:50;22.20;70.90
18291;DHT22;9271;48.590;8.866;2022-08-06T00:07:17;22.30;70.10
18291;DHT22;9271;48.590;8.866;2022-08-06T00:09:45;22.30;70.70
18291;DHT22;9271;48.590;8.866;2022-08-06T00:12:12;22.40;70.60
18291;DHT22;9271;48.590;8.866;2022-08-06T00:14:38;22.50;70.30
18291;DHT22;9271;48.590;8.866;2022-08-06T00:17:05;22.50;70.30
18291;DHT22;9271;48.590;8.866;2022-08-06T00:19:32;22.40;69.80
18291;DHT22;9271;48.590;8.866;2022-08-06T00:21:59;22.40;70.40
18291;DHT22;9271;48.590;8.866;2022-08-06T00:24:25;22.30;70.80
18291;DHT22;9271;48.590;8.866;2022-08-06T00:26:53;22.20;70.10
18291;DHT22;9271;48.590;8.866;2022-08-06T00:29:20;22.20;70.60
18291;DHT22;9271;48.590;8.866;2022-08-06T00:31:47;22.20;70.50
18291;DHT22;9271;48.590;8.866;2022-08-06T00:34:13;22.30;70.30
18291;DHT22;9271;48.590;8.866;2022-08-06T00:36:40;22.20;69.90
18291;DHT22;9271;48.590;8.866;2022-08-06T00:39:07;22.00;69.80
18291;DHT22;9271;48.590;8.866;2022-08-06T00:41:34;22.00;70.20
18291;DHT22;9271;48.590;8.866;2022-08-06T00:44:03;21.90;70.40
18291;DHT22;9271;48.590;8.866;2022-08-06T00:46:30;22.00;70.10
18291;DHT22;9271;48.590;8.866;2022-08-06T00:48:56;21.90;69.70
18291;DHT22;9271;48.590;8.866;2022-08-06T00:51:24;22.00;70.60
18291;DHT22;9271;48.590;8.866;2022-08-06T00:53:51;21.90;70.00
18291;DHT22;9271;48.590;8.866;2022-08-06T00:56:18;21.90;70.50
18291;DHT22;9271;48.590;8.866;2022-08-06T00:58:45;22.00;69.70
18291;DHT22;9271;48.590;8.866;2022-08-06T01:01:13;22.00;70.20
18291;DHT22;9271;48.590;8.866;2022-08-06T01:03:39;21.80;70.80
18291;DHT22;9271;48.590;8.866;2022-08-06T01:06:06;21.90;70.10
18291;DHT22;9271;48.590;8.866;2022-08-06T01:08:33;21.90;70.10
18291;DHT22;9271;48.590;8.866;2022-08-06T01:10:59;22.00;70.20
18291;DHT22;9271;48.590;8.866;2022-08-06T01:13:26;22.00;70.00
18291;DHT22;9271;48.590;8.866;2022-08-06T01:15:58;21.90;69.80
18291;DHT22;9271;48.590;8.866;2022-08-06T01:18:31;21.80;70.60
18291;DHT22;9271;48.590;8.866;2022-08-06T01:21:10;21.90;70.20
18291;DHT22;9271;48.590;8.866;2022-08-06T01:23:55;22.10;69.80
18291;DHT22;9271;48.590;8.866;2022-08-06T01:26:34;22.00;69.70
18291;DHT22;9271;48.590;8.866;2022-08-06T01:29:07;22.00;70.00
18291;DHT22;9271;48.590;8.866;2022-08-06T01:31:51;21.80;71.20
18291;DHT22;9271;48.590;8.866;2022-08-06T01:34:25;21.70;70.40
18291;DHT22;9271;48.590;8.866;2022-08-06T01:36:59;21.80;70.30
18291;DHT22;9271;48.590;8.866;2022-08-06T01:39:29;21.80;70.40
18291;DHT22;9271;48.590;8.866;2022-08-06T01:41:58;21.70;70.70
18291;DHT22;9271;48.590;8.866;2022-08-06T01:44:31;21.90;69.60
18291;DHT22;9271;48.590;8.866;2022-08-06T01:47:01;21.80;68.90
18291;DHT22;9271;48.590;8.866;2022-08-06T01:49:30;21.80;68.90
18291;DHT22;9271;48.590;8.866;2022-08-06T01:51:59;21.90;68.30
18291;DHT22;9271;48.590;8.866;2022-08-06T01:54:29;21.90;68.70
18291;DHT22;9271;48.590;8.866;2022-08-06T01:56:58;21.90;68.20
18291;DHT22;9271;48.590;8.866;2022-08-06T01:59:30;21.90;68.40
18291;DHT22;9271;48.590;8.866;2022-08-06T02:01:59;21.80;69.00
18291;DHT22;9271;48.590;8.866;2022-08-06T02:04:30;21.90;68.30
18291;DHT22;9271;48.590;8.866;2022-08-06T02:06:59;21.90;68.40
18291;DHT22;9271;48.590;8.866;2022-08-06T02:09:28;21.80;69.10
18291;DHT22;9271;48.590;8.866;2022-08-06T02:12:00;21.80;68.50
18291;DHT22;9271;48.590;8.866;2022-08-06T02:14:30;21.70;68.90
18291;DHT22;9271;48.590;8.866;2022-08-06T02:16:59;21.80;68.90
18291;DHT22;9271;48.590;8.866;2022-08-06T02:19:29;21.80;69.40
18291;DHT22;9271;48.590;8.866;2022-08-06T02:21:58;21.70;69.10
18291;DHT22;9271;48.590;8.866;2022-08-06T02:24:27;21.60;69.80
18291;DHT22;9271;48.590;8.866;2022-08-06T02:26:57;21.40;70.20
18291;DHT22;9271;48.590;8.866;2022-08-06T02:29:26;21.40;70.50
18291;DHT22;9271;48.590;8.866;2022-08-06T02:31:54;21.40;70.00
18291;DHT22;9271;48.590;8.866;2022-08-06T02:34:22;21.50;69.80
18291;DHT22;9271;48.590;8.866;2022-08-06T02:36:52;21.60;69.70
18291;DHT22;9271;48.590;8.866;2022-08-06T02:39:25;21.70;69.60
18291;DHT22;9271;48.590;8.866;2022-08-06T02:42:00;21.60;69.20
18291;DHT22;9271;48.590;8.866;2022-08-06T02:44:36;21.50;69.70
18291;DHT22;9271;48.590;8.866;2022-08-06T02:47:09;21.40;69.80
18291;DHT22;9271;48.590;8.866;2022-08-06T02:49:40;21.40;70.70
18291;DHT22;9271;48.590;8.866;2022-08-06T02:52:13;21.30;71.10
18291;DHT22;9271;48.590;8.866;2022-08-06T02:54:44;21.30;70.90
18291;DHT22;9271;48.590;8.866;2022-08-06T02:57:17;21.30;70.90
18291;DHT22;9271;48.590;8.866;2022-08-06T02:59:50;21.20;70.90
18291;DHT22;9271;48.590;8.866;2022-08-06T03:02:22;21.20;71.50
18291;DHT22;9271;48.590;8.866;2022-08-06T03:04:51;21.30;70.70
18291;DHT22;9271;48.590;8.866;2022-08-06T03:07:18;21.30;70.70
18291;DHT22;9271;48.590;8.866;2022-08-06T03:09:48;21.10;71.40
18291;DHT22;9271;48.590;8.866;2022-08-06T03:12:15;21.10;71.80
18291;DHT22;9271;48.590;8.866;2022-08-06T03:14:44;20.90;72.00
18291;DHT22;9271;48.590;8.866;2022-08-06T03:17:12;21.00;72.00
18291;DHT22;9271;48.590;8.866;2022-08-06T03:19:42;21.00;72.60
18291;DHT22;9271;48.590;8.866;2022-08-06T03:22:10;20.80;72.90
18291;DHT22;9271;48.590;8.866;2022-08-06T03:24:38;20.90;72.30
18291;DHT22;9271;48.590;8.866;2022-08-06T03:27:06;20.90;72.90
18291;DHT22;9271;48.590;8.866;2022-08-06T03:29:34;21.00;73.20
18291;DHT22;9271;48.590;8.866;2022-08-06T03:32:02;20.90;73.20
18291;DHT22;9271;48.590;8.866;2022-08-06T03:34:29;20.90;73.00
18291;DHT22;9271;48.590;8.866;2022-08-06T03:36:58;21.00;72.70
18291;DHT22;9271;48.590;8.866;2022-08-06T03:39:27;21.00;72.50
18291;DHT22;9271;48.590;8.866;2022-08-06T03:41:55;21.10;72.10
18291;DHT22;9271;48.590;8.866;2022-08-06T03:44:23;21.20;72.40
18291;DHT22;9271;48.590;8.866;2022-08-06T03:46:55;21.10;72.30
18291;DHT22;9271;48.590;8.866;2022-08-06T03:49:26;21.00;72.90
18291;DHT22;9271;48.590;8.866;2022-08-06T03:51:58;20.90;73.30
18291;DHT22;9271;48.590;8.866;2022-08-06T03:54:27;20.90;72.60
18291;DHT22;9271;48.590;8.866;2022-08-06T03:56:57;20.90;73.00
18291;DHT22;9271;48.590;8.866;2022-08-06T03:59:28;20.90;73.40
18291;DHT22;9271;48.590;8.866;2022-08-06T04:01:56;20.90;73.50
18291;DHT22;9271;48.590;8.866;2022-08-06T04:04:24;20.80;73.80
18291;DHT22;9271;48.590;8.866;2022-08-06T04:06:53;20.80;73.90
18291;DHT22;9271;48.590;8.866;2022-08-06T04:09:23;20.80;74.10
18291;DHT22;9271;48.590;8.866;2022-08-06T04:11:51;20.90;73.90
18291;DHT22;9271;48.590;8.866;2022-08-06T04:14:18;20.80;74.80
18291;DHT22;9271;48.590;8.866;2022-08-06T04:16:46;20.80;74.50
18291;DHT22;9271;48.590;8.866;2022-08-06T04:19:14;20.50;75.20
18291;DHT22;9271;48.590;8.866;2022-08-06T04:21:44;20.50;76.40
18291;DHT22;9271;48.590;8.866;2022-08-06T04:24:11;20.50;75.50
18291;DHT22;9271;48.590;8.866;2022-08-06T04:26:41;20.60;75.10
18291;DHT22;9271;48.590;8.866;2022-08-06T04:29:11;20.70;74.70
18291;DHT22;9271;48.590;8.866;2022-08-06T04:31:40;20.70;75.30
18291;DHT22;9271;48.590;8.866;2022-08-06T04:34:09;20.70;75.40
18291;DHT22;9271;48.590;8.866;2022-08-06T04:36:38;20.70;75.50
18291;DHT22;9271;48.590;8.866;2022-08-06T04:39:05;20.70;75.70
18291;DHT22;9271;48.590;8.866;2022-08-06T04:41:32;20.70;75.70
18291;DHT22;9271;48.590;8.866;2022-08-06T04:44:00;20.60;75.60
18291;DHT22;9271;48.590;8.866;2022-08-06T04:46:27;20.80;75.30
18291;DHT22;9271;48.590;8.866;2022-08-06T04:48:54;20.90;75.40
18291;DHT22;9271;48.590;8.866;2022-08-06T04:51:22;20.80;75.40
18291;DHT22;9271;48.590;8.866;2022-08-06T04:53:49;20.80;75.00
18291;DHT22;9271;48.590;8.866;2022-08-06T04:56:15;20.70;75.70
18291;DHT22;9271;48.590;8.866;2022-08-06T04:58:42;20.70;75.80
18291;DHT22;9271;48.590;8.866;2022-08-06T05:01:10;20.90;75.60
18291;DHT22;9271;48.590;8.866;2022-08-06T05:03:37;20.90;75.10
18291;DHT22;9271;48.590;8.866;2022-08-06T05:06:09;21.00;75.20
18291;DHT22;9271;48.590;8.866;2022-08-06T05:08:40;20.90;75.00
18291;DHT22;9271;48.590;8.866;2022-08-06T05:11:21;20.90;75.00
18291;DHT22;9271;48.590;8.866;2022-08-06T05:13:52;21.00;76.30
18291;DHT22;9271;48.590;8.866;2022-08-06T05:16:22;21.10;75.10
18291;DHT22;9271;48.590;8.866;2022-08-06T05:18:54;21.20;74.50
18291;DHT22;9271;48.590;8.866;2022-08-06T05:21:28;21.20;74.30
18291;DHT22;9271;48.590;8.866;2022-08-06T05:23:56;21.20;74.60
18291;DHT22;9271;48.590;8.866;2022-08-06T05:26:23;21.10;75.40
18291;DHT22;9271;48.590;8.866;2022-08-06T05:28:50;21.30;75.60
18291;DHT22;9271;48.590;8.866;2022-08-06T05:31:30;21.40;74.30
18291;DHT22;9271;48.590;8.866;2022-08-06T05:33:57;21.30;74.10
18291;DHT22;9271;48.590;8.866;2022-08-06T05:36:23;21.20;74.50
18291;DHT22;9271;48.590;8.866;2022-08-06T05:38:50;21.40;74.70
18291;DHT22;9271;48.590;8.866;2022-08-06T05:41:17;21.60;73.80
18291;DHT22;9271;48.590;8.866;2022-08-06T05:43:44;21.70;74.20
18291;DHT22;9271;48.590;8.866;2022-08-06T05:46:12;21.70;73.90
18291;DHT22;9271;48.590;8.866;2022-08-06T05:48:43;21.70;74.30
18291;DHT22;9271;48.590;8.866;2022-08-06T05:51:15;21.80;73.30
18291;DHT22;9271;48.590;8.866;2022-08-06T05:53:48;21.70;73.80
18291;DHT22;9271;48.590;8.866;2022-08-06T05:56:23;21.70;73.80
18291;DHT22;9271;48.590;8.866;2022-08-06T05:58:55;21.70;73.90
18291;DHT22;9271;48.590;8.866;2022-08-06T06:01:23;21.80;74.00
18291;DHT22;9271;48.590;8.866;2022-08-06T06:03:51;21.80;74.40
18291;DHT22;9271;48.590;8.866;2022-08-06T06:06:20;21.90;73.30
18291;DHT22;9271;48.590;8.866;2022-08-06T06:08:48;21.90;72.80
18291;DHT22;9271;48.590;8.866;2022-08-06T06:11:16;22.00;72.70
18291;DHT22;9271;48.590;8.866;2022-08-06T06:13:43;21.90;73.80
18291;DHT22;9271;48.590;8.866;2022-08-06T06:16:18;22.10;72.70
18291;DHT22;9271;48.590;8.866;2022-08-06T06:19:12;22.30;72.40
18291;DHT22;9271;48.590;8.866;2022-08-06T06:21:47;22.40;71.80
18291;DHT22;9271;48.590;8.866;2022-08-06T06:24:19;22.50;72.30
18291;DHT22;9271;48.590;8.866;2022-08-06T06:26:53;22.80;71.50
18291;DHT22;9271;48.590;8.866;2022-08-06T06:29:35;22.80;70.30
18291;DHT22;9271;48.590;8.866;2022-08-06T06:32:10;22.90;71.90
18291;DHT22;9271;48.590;8.866;2022-08-06T06:37:23;23.00;70.80
18291;DHT22;9271;48.590;8.866;2022-08-06T06:40:00;23.20;70.20
18291;DHT22;9271;48.590;8.866;2022-08-06T06:42:34;23.40;69.50
18291;DHT22;9271;48.590;8.866;2022-08-06T06:45:05;23.30;69.80
18291;DHT22;9271;48.590;8.866;2022-08-06T06:47:40;23.30;69.40
18291;DHT22;9271;48.590;8.866;2022-08-06T06:50:17;23.30;69.30
18291;DHT22;9271;48.590;8.866;2022-08-06T06:52:49;23.40;68.70
18291;DHT22;9271;48.590;8.866;2022-08-06T06:55:21;23.80;68.50
18291;DHT22;9271;48.590;8.866;2022-08-06T06:57:52;23.70;67.80
18291;DHT22;9271;48.590;8.866;2022-08-06T07:00:19;23.80;69.20
18291;DHT22;9271;48.590;8.866;2022-08-06T07:02:47;23.70;67.30
18291;DHT22;9271;48.590;8.866;2022-08-06T07:05:15;24.00;67.30
18291;DHT22;9271;48.590;8.866;2022-08-06T07:07:45;24.00;66.90
18291;DHT22;9271;48.590;8.866;2022-08-06T07:10:14;24.10;66.60
18291;DHT22;9271;48.590;8.866;2022-08-06T07:12:43;24.40;66.50
18291;DHT22;9271;48.590;8.866;2022-08-06T07:15:11;24.60;65.40
18291;DHT22;9271;48.590;8.866;2022-08-06T07:17:39;24.70;64.60
18291;DHT22;9271;48.590;8.866;2022-08-06T07:20:09;25.20;63.70
18291;DHT22;9271;48.590;8.866;2022-08-06T07:22:39;25.40;62.60
18291;DHT22;9271;48.590;8.866;2022-08-06T07:25:10;25.60;61.90
18291;DHT22;9271;48.590;8.866;2022-08-06T07:27:40;26.20;61.60
18291;DHT22;9271;48.590;8.866;2022-08-06T07:30:08;26.40;60.00
18291;DHT22;9271;48.590;8.866;2022-08-06T07:32:37;26.50;59.10
18291;DHT22;9271;48.590;8.866;2022-08-06T07:35:06;25.90;59.90
18291;DHT22;9271;48.590;8.866;2022-08-06T07:37:35;26.50;59.80
18291;DHT22;9271;48.590;8.866;2022-08-06T07:40:04;27.10;56.60
18291;DHT22;9271;48.590;8.866;2022-08-06T07:42:34;28.20;55.80
18291;DHT22;9271;48.590;8.866;2022-08-06T07:45:03;28.70;54.40
18291;DHT22;9271;48.590;8.866;2022-08-06T07:47:35;29.40;51.00
18291;DHT22;9271;48.590;8.866;2022-08-06T07:50:05;28.90;52.60
18291;DHT22;9271;48.590;8.866;2022-08-06T07:52:34;29.00;51.90
18291;DHT22;9271;48.590;8.866;2022-08-06T07:55:01;30.80;50.30
18291;DHT22;9271;48.590;8.866;2022-08-06T07:57:28;32.30;46.60
18291;DHT22;9271;48.590;8.866;2022-08-06T07:59:58;33.10;43.30
18291;DHT22;9271;48.590;8.866;2022-08-06T08:02:25;32.80;42.30
18291;DHT22;9271;48.590;8.866;2022-08-06T08:04:52;31.60;43.40
18291;DHT22;9271;48.590;8.866;2022-08-06T08:07:37;30.00;46.80
18291;DHT22;9271;48.590;8.866;2022-08-06T08:10:04;28.00;49.80
18291;DHT22;9271;48.590;8.866;2022-08-06T08:12:32;27.50;51.40
18291;DHT22;9271;48.590;8.866;2022-08-06T08:15:02;27.00;52.90
18291;DHT22;9271;48.590;8.866;2022-08-06T08:17:29;26.50;55.00
18291;DHT22;9271;48.590;8.866;2022-08-06T08:20:02;26.70;54.80
18291;DHT22;9271;48.590;8.866;2022-08-06T08:22:29;28.80;50.20
18291;DHT22;9271;48.590;8.866;2022-08-06T08:24:56;29.20;49.20
18291;DHT22;9271;48.590;8.866;2022-08-06T08:27:22;30.40;48.50
18291;DHT22;9271;48.590;8.866;2022-08-06T08:29:49;31.60;46.00
18291;DHT22;9271;48.590;8.866;2022-08-06T08:32:18;32.30;45.30
18291;DHT22;9271;48.590;8.866;2022-08-06T08:34:45;32.70;43.70
18291;DHT22;9271;48.590;8.866;2022-08-06T08:37:12;32.00;42.80
18291;DHT22;9271;48.590;8.866;2022-08-06T08:39:38;30.50;46.00
18291;DHT22;9271;48.590;8.866;2022-08-06T08:42:13;29.50;47.90
18291;DHT22;9271;48.590;8.866;2022-08-06T08:44:41;29.00;48.50
18291;DHT22;9271;48.590;8.866;2022-08-06T08:47:09;28.80;49.40
18291;DHT22;9271;48.590;8.866;2022-08-06T08:49:46;28.70;49.60
18291;DHT22;9271;48.590;8.866;2022-08-06T08:52:14;28.50;49.70
18291;DHT22;9271;48.590;8.866;2022-08-06T08:54:45;28.30;50.00
18291;DHT22;9271;48.590;8.866;2022-08-06T08:57:14;30.10;48.00
18291;DHT22;9271;48.590;8.866;2022-08-06T08:59:42;32.40;41.50
18291;DHT22;9271;48.590;8.866;2022-08-06T09:02:12;33.90;39.10
18291;DHT22;9271;48.590;8.866;2022-08-06T09:04:41;34.90;36.50
18291;DHT22;9271;48.590;8.866;2022-08-06T09:07:09;35.10;34.40
18291;DHT22;9271;48.590;8.866;2022-08-06T09:09:37;34.60;35.60
18291;DHT22;9271;48.590;8.866;2022-08-06T09:12:05;32.90;37.10
18291;DHT22;9271;48.590;8.866;2022-08-06T09:14:33;30.00;41.60
18291;DHT22;9271;48.590;8.866;2022-08-06T09:17:00;29.80;43.40
18291;DHT22;9271;48.590;8.866;2022-08-06T09:19:28;30.70;42.60
18291;DHT22;9271;48.590;8.866;2022-08-06T09:21:57;31.60;40.80
18291;DHT22;9271;48.590;8.866;2022-08-06T09:24:24;31.50;39.20
18291;DHT22;9271;48.590;8.866;2022-08-06T09:27:04;31.00;40.10
18291;DHT22;9271;48.590;8.866;2022-08-06T09:29:32;30.10;42.20
18291;DHT22;9271;48.590;8.866;2022-08-06T09:31:59;29.40;44.20
18291;DHT22;9271;48.590;8.866;2022-08-06T09:34:34;28.80;45.10
18291;DHT22;9271;48.590;8.866;2022-08-06T09:37:03;28.80;46.20
18291;DHT22;9271;48.590;8.866;2022-08-06T09:39:32;28.10;46.60
18291;DHT22;9271;48.590;8.866;2022-08-06T09:42:00;27.80;47.70
18291;DHT22;9271;48.590;8.866;2022-08-06T09:44:27;27.30;48.30
18291;DHT22;9271;48.590;8.866;2022-08-06T09:46:54;27.40;49.00
18291;DHT22;9271;48.590;8.866;2022-08-06T09:49:20;27.80;48.00
18291;DHT22;9271;48.590;8.866;2022-08-06T09:51:47;28.50;46.90
18291;DHT22;9271;48.590;8.866;2022-08-06T09:54:15;28.90;45.80
18291;DHT22;9271;48.590;8.866;2022-08-06T09:56:43;28.50;46.20
18291;DHT22;9271;48.590;8.866;2022-08-06T09:59:11;28.50;46.80
18291;DHT22;9271;48.590;8.866;2022-08-06T10:01:39;28.60;46.10
18291;DHT22;9271;48.590;8.866;2022-08-06T10:04:06;30.30;44.60
18291;DHT22;9271;48.590;8.866;2022-08-06T10:06:33;32.40;40.90
18291;DHT22;9271;48.590;8.866;2022-08-06T10:09:08;34.00;36.30
18291;DHT22;9271;48.590;8.866;2022-08-06T10:11:38;34.20;37.50
18291;DHT22;9271;48.590;8.866;2022-08-06T10:14:05;32.20;38.70
18291;DHT22;9271;48.590;8.866;2022-08-06T10:16:32;31.80;40.50
18291;DHT22;9271;48.590;8.866;2022-08-06T10:18:59;31.90;39.70
18291;DHT22;9271;48.590;8.866;2022-08-06T10:21:31;32.00;40.10
18291;DHT22;9271;48.590;8.866;2022-08-06T10:24:02;32.20;38.20
18291;DHT22;9271;48.590;8.866;2022-08-06T10:26:30;31.80;39.20
18291;DHT22;9271;48.590;8.866;2022-08-06T10:29:03;31.20;41.10
18291;DHT22;9271;48.590;8.866;2022-08-06T10:31:31;31.30;40.70
18291;DHT22;9271;48.590;8.866;2022-08-06T10:34:02;31.40;40.70
18291;DHT22;9271;48.590;8.866;2022-08-06T10:36:34;31.80;40.00
18291;DHT22;9271;48.590;8.866;2022-08-06T10:39:03;32.90;39.30
18291;DHT22;9271;48.590;8.866;2022-08-06T10:41:30;33.10;38.80
18291;DHT22;9271;48.590;8.866;2022-08-06T10:44:02;32.40;38.60
18291;DHT22;9271;48.590;8.866;2022-08-06T10:46:29;32.50;39.00
18291;DHT22;9271;48.590;8.866;2022-08-06T10:48:58;31.90;38.60
18291;DHT22;9271;48.590;8.866;2022-08-06T10:51:25;31.20;40.70
18291;DHT22;9271;48.590;8.866;2022-08-06T10:53:54;31.30;41.10
18291;DHT22;9271;48.590;8.866;2022-08-06T10:56:21;33.10;38.30
18291;DHT22;9271;48.590;8.866;2022-08-06T10:58:50;35.10;36.30
18291;DHT22;9271;48.590;8.866;2022-08-06T11:01:27;36.80;34.70
18291;DHT22;9271;48.590;8.866;2022-08-06T11:04:03;36.50;32.70
18291;DHT22;9271;48.590;8.866;2022-08-06T11:06:56;35.90;33.60
18291;DHT22;9271;48.590;8.866;2022-08-06T11:09:55;36.20;32.10
18291;DHT22;9271;48.590;8.866;2022-08-06T11:12:34;35.50;32.80
18291;DHT22;9271;48.590;8.866;2022-08-06T11:15:06;35.10;32.20
18291;DHT22;9271;48.590;8.866;2022-08-06T11:17:44;34.60;34.80
18291;DHT22;9271;48.590;8.866;2022-08-06T11:20:36;34.80;35.20
18291;DHT22;9271;48.590;8.866;2022-08-06T11:23:22;34.50;33.90
18291;DHT22;9271;48.590;8.866;2022-08-06T11:25:51;34.40;35.00
18291;DHT22;9271;48.590;8.866;2022-08-06T11:28:19;34.00;36.30
18291;DHT22;9271;48.590;8.866;2022-08-06T11:30:48;33.70;35.60
18291;DHT22;9271;48.590;8.866;2022-08-06T11:33:19;33.50;35.90
18291;DHT22;9271;48.590;8.866;2022-08-06T11:35:47;34.10;35.20
18291;DHT22;9271;48.590;8.866;2022-08-06T11:38:16;34.70;33.60
18291;DHT22;9271;48.590;8.866;2022-08-06T11:41:07;34.90;32.70
18291;DHT22;9271;48.590;8.866;2022-08-06T11:43:44;36.20;31.80
18291;DHT22;9271;48.590;8.866;2022-08-06T11:46:17;38.00;30.40
18291;DHT22;9271;48.590;8.866;2022-08-06T11:49:19;38.20;28.80
18291;DHT22;9271;48.590;8.866;2022-08-06T11:51:49;40.00;28.70
18291;DHT22;9271;48.590;8.866;2022-08-06T11:54:17;41.80;26.40
18291;DHT22;9271;48.590;8.866;2022-08-06T11:59:46;43.60;25.50
18291;DHT22;9271;48.590;8.866;2022-08-06T12:02:16;44.10;23.30
18291;DHT22;9271;48.590;8.866;2022-08-06T12:04:45;42.10;24.60
18291;DHT22;9271;48.590;8.866;2022-08-06T12:07:20;39.60;26.10
18291;DHT22;9271;48.590;8.866;2022-08-06T12:09:59;37.40;27.70
18291;DHT22;9271;48.590;8.866;2022-08-06T12:12:34;37.80;28.60
18291;DHT22;9271;48.590;8.866;2022-08-06T12:15:04;39.40;28.00
18291;DHT22;9271;48.590;8.866;2022-08-06T12:17:59;41.00;26.70
18291;DHT22;9271;48.590;8.866;2022-08-06T12:20:31;42.60;24.60
18291;DHT22;9271;48.590;8.866;2022-08-06T12:22:58;43.20;23.50
18291;DHT22;9271;48.590;8.866;2022-08-06T12:25:29;44.30;22.40
18291;DHT22;9271;48.590;8.866;2022-08-06T12:27:56;44.30;21.90
18291;DHT22;9271;48.590;8.866;2022-08-06T12:30:23;42.60;23.40
18291;DHT22;9271;48.590;8.866;2022-08-06T12:32:59;40.70;23.70
18291;DHT22;9271;48.590;8.866;2022-08-06T12:35:26;40.20;24.60
18291;DHT22;9271;48.590;8.866;2022-08-06T12:37:54;41.90;23.90
18291;DHT22;9271;48.590;8.866;2022-08-06T12:40:21;42.60;23.60
18291;DHT22;9271;48.590;8.866;2022-08-06T12:42:54;44.00;23.40
18291;DHT22;9271;48.590;8.866;2022-08-06T12:45:21;42.10;23.40
18291;DHT22;9271;48.590;8.866;2022-08-06T12:47:56;40.20;25.40
18291;DHT22;9271;48.590;8.866;2022-08-06T12:50:23;38.00;26.10
18291;DHT22;9271;48.590;8.866;2022-08-06T12:53:03;37.00;28.00
18291;DHT22;9271;48.590;8.866;2022-08-06T12:55:30;38.20;26.50
18291;DHT22;9271;48.590;8.866;2022-08-06T12:57:58;38.20;26.30
18291;DHT22;9271;48.590;8.866;2022-08-06T13:00:26;39.90;24.70
18291;DHT22;9271;48.590;8.866;2022-08-06T13:02:54;40.90;24.90
18291;DHT22;9271;48.590;8.866;2022-08-06T13:05:22;41.80;23.70
18291;DHT22;9271;48.590;8.866;2022-08-06T13:07:52;43.00;22.90
18291;DHT22;9271;48.590;8.866;2022-08-06T13:10:21;42.00;23.80
18291;DHT22;9271;48.590;8.866;2022-08-06T13:12:53;41.80;24.30
18291;DHT22;9271;48.590;8.866;2022-08-06T13:15:20;39.40;26.10
18291;DHT22;9271;48.590;8.866;2022-08-06T13:18:00;38.90;27.60
18291;DHT22;9271;48.590;8.866;2022-08-06T13:20:35;40.10;25.70
18291;DHT22;9271;48.590;8.866;2022-08-06T13:23:02;38.60;25.80
18291;DHT22;9271;48.590;8.866;2022-08-06T13:25:39;38.20;26.50
18291;DHT22;9271;48.590;8.866;2022-08-06T13:28:11;37.50;27.40
18291;DHT22;9271;48.590;8.866;2022-08-06T13:30:39;37.70;28.50
18291;DHT22;9271;48.590;8.866;2022-08-06T13:33:14;38.40;27.10
18291;DHT22;9271;48.590;8.866;2022-08-06T13:35:41;39.80;26.10
18291;DHT22;9271;48.590;8.866;2022-08-06T13:38:07;38.80;26.50
18291;DHT22;9271;48.590;8.866;2022-08-06T13:40:41;38.50;27.20
18291;DHT22;9271;48.590;8.866;2022-08-06T13:43:10;39.30;26.10
18291;DHT22;9271;48.590;8.866;2022-08-06T13:45:37;39.60;25.30
18291;DHT22;9271;48.590;8.866;2022-08-06T13:48:06;39.70;25.40
18291;DHT22;9271;48.590;8.866;2022-08-06T13:50:33;39.50;26.40
18291;DHT22;9271;48.590;8.866;2022-08-06T13:53:01;40.30;25.10
18291;DHT22;9271;48.590;8.866;2022-08-06T13:55:28;39.20;25.60
18291;DHT22;9271;48.590;8.866;2022-08-06T13:57:57;38.70;26.30
18291;DHT22;9271;48.590;8.866;2022-08-06T14:00:24;37.70;26.40
18291;DHT22;9271;48.590;8.866;2022-08-06T14:02:51;36.00;28.80
18291;DHT22;9271;48.590;8.866;2022-08-06T14:05:19;36.10;29.60
18291;DHT22;9271;48.590;8.866;2022-08-06T14:07:45;35.70;28.60
18291;DHT22;9271;48.590;8.866;2022-08-06T14:10:12;34.20;30.10
18291;DHT22;9271;48.590;8.866;2022-08-06T14:12:40;33.50;32.60
18291;DHT22;9271;48.590;8.866;2022-08-06T14:15:09;32.50;32.10
18291;DHT22;9271;48.590;8.866;2022-08-06T14:17:36;31.60;34.50
18291;DHT22;9271;48.590;8.866;2022-08-06T14:20:03;31.60;35.20
18291;DHT22;9271;48.590;8.866;2022-08-06T14:22:30;31.70;35.00
18291;DHT22;9271;48.590;8.866;2022-08-06T14:24:57;31.50;34.10
18291;DHT22;9271;48.590;8.866;2022-08-06T14:27:23;32.00;34.90
18291;DHT22;9271;48.590;8.866;2022-08-06T14:29:51;33.10;34.20
18291;DHT22;9271;48.590;8.866;2022-08-06T14:32:19;33.40;32.30
18291;DHT22;9271;48.590;8.866;2022-08-06T14:34:45;33.10;32.30
18291;DHT22;9271;48.590;8.866;2022-08-06T14:37:12;33.90;32.00
18291;DHT22;9271;48.590;8.866;2022-08-06T14:39:39;33.90;31.00
18291;DHT22;9271;48.590;8.866;2022-08-06T14:42:06;33.40;32.60
18291;DHT22;9271;48.590;8.866;2022-08-06T14:44:50;32.60;32.70
18291;DHT22;9271;48.590;8.866;2022-08-06T14:47:24;32.00;34.00
18291;DHT22;9271;48.590;8.866;2022-08-06T14:49:51;32.20;33.60
18291;DHT22;9271;48.590;8.866;2022-08-06T14:52:18;31.90;34.80
18291;DHT22;9271;48.590;8.866;2022-08-06T14:54:44;31.90;33.80
18291;DHT22;9271;48.590;8.866;2022-08-06T14:57:11;31.30;35.50
18291;DHT22;9271;48.590;8.866;2022-08-06T14:59:38;31.70;35.00
18291;DHT22;9271;48.590;8.866;2022-08-06T15:02:05;32.70;33.80
18291;DHT22;9271;48.590;8.866;2022-08-06T15:04:33;32.90;32.60
18291;DHT22;9271;48.590;8.866;2022-08-06T15:07:00;32.90;33.90
18291;DHT22;9271;48.590;8.866;2022-08-06T15:09:27;33.40;32.30
18291;DHT22;9271;48.590;8.866;2022-08-06T15:11:54;33.80;31.70
18291;DHT22;9271;48.590;8.866;2022-08-06T15:14:21;32.60;32.70
18291;DHT22;9271;48.590;8.866;2022-08-06T15:16:48;31.30;34.20
18291;DHT22;9271;48.590;8.866;2022-08-06T15:19:14;31.00;35.30
18291;DHT22;9271;48.590;8.866;2022-08-06T15:21:42;31.00;35.50
18291;DHT22;9271;48.590;8.866;2022-08-06T15:24:09;31.40;35.00
18291;DHT22;9271;48.590;8.866;2022-08-06T15:26:36;31.70;34.30
18291;DHT22;9271;48.590;8.866;2022-08-06T15:29:03;32.40;34.40
18291;DHT22;9271;48.590;8.866;2022-08-06T15:31:30;32.70;33.30
18291;DHT22;9271;48.590;8.866;2022-08-06T15:33:57;32.20;34.30
18291;DHT22;9271;48.590;8.866;2022-08-06T15:36:24;31.50;35.00
18291;DHT22;9271;48.590;8.866;2022-08-06T15:38:52;30.80;36.60
18291;DHT22;9271;48.590;8.866;2022-08-06T15:41:20;30.70;34.80
18291;DHT22;9271;48.590;8.866;2022-08-06T15:43:49;30.70;35.60
18291;DHT22;9271;48.590;8.866;2022-08-06T15:46:16;30.50;36.80
18291;DHT22;9271;48.590;8.866;2022-08-06T15:48:43;30.60;35.90
18291;DHT22;9271;48.590;8.866;2022-08-06T15:51:10;30.40;36.70
18291;DHT22;9271;48.590;8.866;2022-08-06T15:53:37;29.80;36.90
18291;DHT22;9271;48.590;8.866;2022-08-06T15:56:05;30.00;36.90
18291;DHT22;9271;48.590;8.866;2022-08-06T15:58:32;30.20;36.80
18291;DHT22;9271;48.590;8.866;2022-08-06T16:00:59;30.00;37.50
18291;DHT22;9271;48.590;8.866;2022-08-06T16:03:25;30.20;37.50
18291;DHT22;9271;48.590;8.866;2022-08-06T16:05:52;30.50;36.50
18291;DHT22;9271;48.590;8.866;2022-08-06T16:08:19;30.40;36.10